sensor_id;sensor_type;location;lat;lon;timestamp;P1;durP1;ratioP1;P2;durP2;ratioP2
33993;SDS011;20673;48.980;8.138;2024-01-06T00:02:25;6.90;;;4.43;;
33993;SDS011;20673;48.980;8.138;2024-01-06T00:04:52;8.53;;;5.10;;
33993;SDS011;20673;48.980;8.138;2024-01-06T00:07:18;9.87;;;4.80;;
33993;SDS011;20673;48.980;8.138;2024-01-06T00:09:44;9.47;;;4.93;;
33993;SDS011;20673;48.980;8.138;2024-01-06T00:12:10;10.77;;;4.90;;
33993;SDS011;20673;48.980;8.138;2024-01-06T00:14:36;7.93;;;4.20;;
33993;SDS011;20673;48.980;8.138;2024-01-06T00:17:03;10.03;;;6.33;;
33993;SDS011;20673;48.980;8.138;2024-01-06T00:19:29;5.93;;;3.93;;
33993;SDS011;20673;48.980;8.138;2024-01-06T00:21:55;6.27;;;4.13;;
33993;SDS011;20673;48.980;8.138;2024-01-06T00:24:21;4.83;;;3.70;;
33993;SDS011;20673;48.980;8.138;2024-01-06T00:26:47;7.03;;;4.83;;
33993;SDS011;20673;48.980;8.138;2024-01-06T00:29:13;6.73;;;4.63;;
33993;SDS011;20673;48.980;8.138;2024-01-06T00:31:39;9.90;;;5.20;;
33993;SDS011;20673;48.980;8.138;2024-01-06T00:34:05;8.57;;;5.20;;
33993;SDS011;20673;48.980;8.138;2024-01-06T00:36:31;7.63;;;4.63;;
33993;SDS011;20673;48.980;8.138;2024-01-06T00:38:57;9.20;;;5.00;;
33993;SDS011;20673;48.980;8.138;2024-01-06T00:41:23;9.97;;;5.37;;
33993;SDS011;20673;48.980;8.138;2024-01-06T00:43:50;9.70;;;5.00;;
33993;SDS011;20673;48.980;8.138;2024-01-06T00:46:16;10.87;;;5.33;;
33993;SDS011;20673;48.980;8.138;2024-01-06T00:48:42;11.20;;;5.13;;
33993;SDS011;20673;48.980;8.138;2024-01-06T00:51:08;10.70;;;5.23;;
33993;SDS011;20673;48.980;8.138;2024-01-06T00:53:34;11.67;;;6.10;;
33993;SDS011;20673;48.980;8.138;2024-01-06T00:56:00;12.73;;;5.13;;
33993;SDS011;20673;48.980;8.138;2024-01-06T00:58:26;8.27;;;4.90;;
33993;SDS011;20673;48.980;8.138;2024-01-06T01:00:52;11.87;;;5.20;;
33993;SDS011;20673;48.980;8.138;2024-01-06T01:03:19;9.17;;;5.00;;
33993;SDS011;20673;48.980;8.138;2024-01-06T01:05:45;7.80;;;4.43;;
33993;SDS011;20673;48.980;8.138;2024-01-06T01:08:11;10.03;;;4.87;;
33993;SDS011;20673;48.980;8.138;2024-01-06T01:10:37;9.17;;;5.23;;
33993;SDS011;20673;48.980;8.138;2024-01-06T01:13:03;13.10;;;5.27;;
33993;SDS011;20673;48.980;8.138;2024-01-06T01:15:29;8.03;;;5.13;;
33993;SDS011;20673;48.980;8.138;2024-01-06T01:17:55;11.13;;;4.67;;
33993;SDS011;20673;48.980;8.138;2024-01-06T01:20:21;5.97;;;3.90;;
33993;SDS011;20673;48.980;8.138;2024-01-06T01:22:47;9.07;;;4.97;;
33993;SDS011;20673;48.980;8.138;2024-01-06T01:25:13;10.53;;;4.90;;
33993;SDS011;20673;48.980;8.138;2024-01-06T01:27:39;9.03;;;4.33;;
33993;SDS011;20673;48.980;8.138;2024-01-06T01:30:06;7.60;;;3.97;;
33993;SDS011;20673;48.980;8.138;2024-01-06T01:32:33;11.30;;;4.33;;
33993;SDS011;20673;48.980;8.138;2024-01-06T01:34:59;8.57;;;4.87;;
33993;SDS011;20673;48.980;8.138;2024-01-06T01:37:25;9.87;;;4.40;;
33993;SDS011;20673;48.980;8.138;2024-01-06T01:39:51;5.53;;;4.27;;
33993;SDS011;20673;48.980;8.138;2024-01-06T01:42:17;5.47;;;3.70;;
33993;SDS011;20673;48.980;8.138;2024-01-06T01:44:43;13.50;;;4.40;;
33993;SDS011;20673;48.980;8.138;2024-01-06T01:47:10;10.87;;;4.33;;
33993;SDS011;20673;48.980;8.138;2024-01-06T01:49:37;9.37;;;4.33;;
33993;SDS011;20673;48.980;8.138;2024-01-06T01:52:03;14.53;;;4.23;;
33993;SDS011;20673;48.980;8.138;2024-01-06T01:54:30;7.93;;;3.80;;
33993;SDS011;20673;48.980;8.138;2024-01-06T01:56:56;8.73;;;4.60;;
33993;SDS011;20673;48.980;8.138;2024-01-06T01:59:22;6.50;;;3.23;;
33993;SDS011;20673;48.980;8.138;2024-01-06T02:01:48;10.13;;;3.20;;
33993;SDS011;20673;48.980;8.138;2024-01-06T02:04:15;7.73;;;3.90;;
33993;SDS011;20673;48.980;8.138;2024-01-06T02:06:41;5.53;;;2.93;;
33993;SDS011;20673;48.980;8.138;2024-01-06T02:09:07;8.93;;;3.90;;
33993;SDS011;20673;48.980;8.138;2024-01-06T02:11:33;11.60;;;3.70;;
33993;SDS011;20673;48.980;8.138;2024-01-06T02:13:59;10.40;;;4.10;;
33993;SDS011;20673;48.980;8.138;2024-01-06T02:16:26;7.23;;;3.47;;
33993;SDS011;20673;48.980;8.138;2024-01-06T02:18:52;7.27;;;3.00;;
33993;SDS011;20673;48.980;8.138;2024-01-06T02:21:18;8.93;;;4.13;;
33993;SDS011;20673;48.980;8.138;2024-01-06T02:23:48;9.20;;;4.90;;
33993;SDS011;20673;48.980;8.138;2024-01-06T02:26:14;8.30;;;4.67;;
33993;SDS011;20673;48.980;8.138;2024-01-06T02:28:41;12.40;;;5.20;;
33993;SDS011;20673;48.980;8.138;2024-01-06T02:31:09;6.00;;;3.60;;
33993;SDS011;20673;48.980;8.138;2024-01-06T02:33:35;12.47;;;4.07;;
33993;SDS011;20673;48.980;8.138;2024-01-06T02:36:02;5.23;;;3.07;;
33993;SDS011;20673;48.980;8.138;2024-01-06T02:38:29;7.60;;;2.70;;
33993;SDS011;20673;48.980;8.138;2024-01-06T02:40:55;7.23;;;3.10;;
33993;SDS011;20673;48.980;8.138;2024-01-06T02:43:21;5.70;;;2.90;;
33993;SDS011;20673;48.980;8.138;2024-01-06T02:45:48;5.67;;;2.93;;
33993;SDS011;20673;48.980;8.138;2024-01-06T02:48:15;7.87;;;3.80;;
33993;SDS011;20673;48.980;8.138;2024-01-06T02:50:42;9.73;;;3.17;;
33993;SDS011;20673;48.980;8.138;2024-01-06T02:53:08;10.20;;;3.60;;
33993;SDS011;20673;48.980;8.138;2024-01-06T02:55:35;7.07;;;2.90;;
33993;SDS011;20673;48.980;8.138;2024-01-06T02:58:01;12.03;;;3.10;;
33993;SDS011;20673;48.980;8.138;2024-01-06T03:00:27;9.07;;;3.17;;
33993;SDS011;20673;48.980;8.138;2024-01-06T03:02:53;9.13;;;3.30;;
33993;SDS011;20673;48.980;8.138;2024-01-06T03:05:19;11.93;;;3.73;;
33993;SDS011;20673;48.980;8.138;2024-01-06T03:07:45;9.83;;;3.10;;
33993;SDS011;20673;48.980;8.138;2024-01-06T03:10:11;5.43;;;2.83;;
33993;SDS011;20673;48.980;8.138;2024-01-06T03:12:37;4.77;;;3.27;;
33993;SDS011;20673;48.980;8.138;2024-01-06T03:15:03;10.43;;;3.10;;
33993;SDS011;20673;48.980;8.138;2024-01-06T03:17:30;6.40;;;3.07;;
33993;SDS011;20673;48.980;8.138;2024-01-06T03:19:57;9.20;;;3.23;;
33993;SDS011;20673;48.980;8.138;2024-01-06T03:22:23;5.83;;;3.00;;
33993;SDS011;20673;48.980;8.138;2024-01-06T03:24:49;5.93;;;3.23;;
33993;SDS011;20673;48.980;8.138;2024-01-06T03:27:15;5.83;;;2.70;;
33993;SDS011;20673;48.980;8.138;2024-01-06T03:29:41;7.07;;;3.10;;
33993;SDS011;20673;48.980;8.138;2024-01-06T03:32:07;6.37;;;3.20;;
33993;SDS011;20673;48.980;8.138;2024-01-06T03:34:33;11.17;;;3.60;;
33993;SDS011;20673;48.980;8.138;2024-01-06T03:36:59;5.60;;;3.43;;
33993;SDS011;20673;48.980;8.138;2024-01-06T03:39:25;8.10;;;3.03;;
33993;SDS011;20673;48.980;8.138;2024-01-06T03:41:51;5.70;;;2.40;;
33993;SDS011;20673;48.980;8.138;2024-01-06T03:44:17;9.57;;;3.60;;
33993;SDS011;20673;48.980;8.138;2024-01-06T03:46:44;6.77;;;3.50;;
33993;SDS011;20673;48.980;8.138;2024-01-06T03:49:10;8.53;;;3.20;;
33993;SDS011;20673;48.980;8.138;2024-01-06T03:51:36;12.73;;;4.00;;
33993;SDS011;20673;48.980;8.138;2024-01-06T03:54:02;6.83;;;3.40;;
33993;SDS011;20673;48.980;8.138;2024-01-06T03:56:28;9.73;;;3.70;;
33993;SDS011;20673;48.980;8.138;2024-01-06T03:58:54;6.80;;;3.20;;
33993;SDS011;20673;48.980;8.138;2024-01-06T04:01:20;7.70;;;3.30;;
33993;SDS011;20673;48.980;8.138;2024-01-06T04:03:46;7.43;;;3.93;;
33993;SDS011;20673;48.980;8.138;2024-01-06T04:06:12;12.73;;;3.77;;
33993;SDS011;20673;48.980;8.138;2024-01-06T04:08:39;11.07;;;3.93;;
33993;SDS011;20673;48.980;8.138;2024-01-06T04:11:07;7.87;;;3.97;;
33993;SDS011;20673;48.980;8.138;2024-01-06T04:13:33;9.43;;;4.20;;
33993;SDS011;20673;48.980;8.138;2024-01-06T04:15:59;8.00;;;3.33;;
33993;SDS011;20673;48.980;8.138;2024-01-06T04:18:25;13.87;;;3.43;;
33993;SDS011;20673;48.980;8.138;2024-01-06T04:20:51;10.23;;;3.90;;
33993;SDS011;20673;48.980;8.138;2024-01-06T04:23:17;7.60;;;3.53;;
33993;SDS011;20673;48.980;8.138;2024-01-06T04:25:43;6.33;;;3.23;;
33993;SDS011;20673;48.980;8.138;2024-01-06T04:28:09;7.57;;;3.50;;
33993;SDS011;20673;48.980;8.138;2024-01-06T04:30:35;8.70;;;4.00;;
33993;SDS011;20673;48.980;8.138;2024-01-06T04:33:01;7.20;;;3.30;;
33993;SDS011;20673;48.980;8.138;2024-01-06T04:35:29;8.47;;;3.57;;
33993;SDS011;20673;48.980;8.138;2024-01-06T04:37:55;9.23;;;3.70;;
33993;SDS011;20673;48.980;8.138;2024-01-06T04:40:21;7.47;;;3.40;;
33993;SDS011;20673;48.980;8.138;2024-01-06T04:42:47;7.87;;;3.57;;
33993;SDS011;20673;48.980;8.138;2024-01-06T04:45:13;6.57;;;3.40;;
33993;SDS011;20673;48.980;8.138;2024-01-06T04:47:39;10.07;;;4.10;;
33993;SDS011;20673;48.980;8.138;2024-01-06T04:50:06;13.23;;;3.83;;
33993;SDS011;20673;48.980;8.138;2024-01-06T04:52:32;9.40;;;3.90;;
33993;SDS011;20673;48.980;8.138;2024-01-06T04:54:59;9.30;;;3.60;;
33993;SDS011;20673;48.980;8.138;2024-01-06T04:57:25;11.53;;;3.90;;
33993;SDS011;20673;48.980;8.138;2024-01-06T04:59:51;8.33;;;3.83;;
33993;SDS011;20673;48.980;8.138;2024-01-06T05:02:17;6.20;;;3.63;;
33993;SDS011;20673;48.980;8.138;2024-01-06T05:04:43;8.10;;;3.23;;
33993;SDS011;20673;48.980;8.138;2024-01-06T05:07:09;8.37;;;3.40;;
33993;SDS011;20673;48.980;8.138;2024-01-06T05:09:35;10.07;;;3.73;;
33993;SDS011;20673;48.980;8.138;2024-01-06T05:12:01;6.13;;;3.63;;
33993;SDS011;20673;48.980;8.138;2024-01-06T05:14:28;9.23;;;3.43;;
33993;SDS011;20673;48.980;8.138;2024-01-06T05:16:54;7.80;;;3.43;;
33993;SDS011;20673;48.980;8.138;2024-01-06T05:19:20;8.87;;;3.20;;
33993;SDS011;20673;48.980;8.138;2024-01-06T05:21:46;11.73;;;3.50;;
33993;SDS011;20673;48.980;8.138;2024-01-06T05:24:13;7.23;;;2.97;;
33993;SDS011;20673;48.980;8.138;2024-01-06T05:26:39;7.03;;;3.20;;
33993;SDS011;20673;48.980;8.138;2024-01-06T05:29:05;11.93;;;3.50;;
33993;SDS011;20673;48.980;8.138;2024-01-06T05:31:32;6.07;;;3.63;;
33993;SDS011;20673;48.980;8.138;2024-01-06T05:33:58;10.17;;;3.50;;
33993;SDS011;20673;48.980;8.138;2024-01-06T05:36:24;8.27;;;3.50;;
33993;SDS011;20673;48.980;8.138;2024-01-06T05:38:51;5.90;;;3.10;;
33993;SDS011;20673;48.980;8.138;2024-01-06T05:41:17;9.43;;;3.37;;
33993;SDS011;20673;48.980;8.138;2024-01-06T05:43:43;7.47;;;3.60;;
33993;SDS011;20673;48.980;8.138;2024-01-06T05:46:09;8.30;;;3.20;;
33993;SDS011;20673;48.980;8.138;2024-01-06T05:48:36;7.80;;;3.63;;
33993;SDS011;20673;48.980;8.138;2024-01-06T05:51:07;6.97;;;3.70;;
33993;SDS011;20673;48.980;8.138;2024-01-06T05:53:31;4.93;;;3.57;;
33993;SDS011;20673;48.980;8.138;2024-01-06T05:55:57;7.47;;;4.13;;
33993;SDS011;20673;48.980;8.138;2024-01-06T05:58:23;6.40;;;3.83;;
33993;SDS011;20673;48.980;8.138;2024-01-06T06:00:49;11.57;;;4.33;;
33993;SDS011;20673;48.980;8.138;2024-01-06T06:03:16;9.40;;;4.17;;
33993;SDS011;20673;48.980;8.138;2024-01-06T06:05:42;6.80;;;3.83;;
33993;SDS011;20673;48.980;8.138;2024-01-06T06:08:08;10.90;;;3.77;;
33993;SDS011;20673;48.980;8.138;2024-01-06T06:10:34;9.70;;;3.93;;
33993;SDS011;20673;48.980;8.138;2024-01-06T06:15:35;11.93;;;4.03;;
33993;SDS011;20673;48.980;8.138;2024-01-06T06:18:01;12.23;;;4.43;;
33993;SDS011;20673;48.980;8.138;2024-01-06T06:20:27;9.37;;;4.07;;
33993;SDS011;20673;48.980;8.138;2024-01-06T06:22:53;8.63;;;4.23;;
33993;SDS011;20673;48.980;8.138;2024-01-06T06:25:19;7.53;;;4.70;;
33993;SDS011;20673;48.980;8.138;2024-01-06T06:27:45;14.57;;;4.53;;
33993;SDS011;20673;48.980;8.138;2024-01-06T06:30:11;9.97;;;5.17;;
33993;SDS011;20673;48.980;8.138;2024-01-06T06:32:38;8.90;;;4.63;;
33993;SDS011;20673;48.980;8.138;2024-01-06T06:35:05;11.10;;;4.23;;
33993;SDS011;20673;48.980;8.138;2024-01-06T06:37:32;8.73;;;4.37;;
33993;SDS011;20673;48.980;8.138;2024-01-06T06:39:58;7.33;;;3.73;;
33993;SDS011;20673;48.980;8.138;2024-01-06T06:42:24;12.40;;;4.73;;
33993;SDS011;20673;48.980;8.138;2024-01-06T06:44:51;11.17;;;4.33;;
33993;SDS011;20673;48.980;8.138;2024-01-06T06:47:17;10.17;;;4.27;;
33993;SDS011;20673;48.980;8.138;2024-01-06T06:49:44;7.40;;;4.07;;
33993;SDS011;20673;48.980;8.138;2024-01-06T06:52:10;10.20;;;4.13;;
33993;SDS011;20673;48.980;8.138;2024-01-06T06:54:37;9.73;;;3.93;;
33993;SDS011;20673;48.980;8.138;2024-01-06T06:57:04;10.73;;;4.20;;
33993;SDS011;20673;48.980;8.138;2024-01-06T06:59:30;5.93;;;3.83;;
33993;SDS011;20673;48.980;8.138;2024-01-06T07:01:56;11.23;;;4.73;;
33993;SDS011;20673;48.980;8.138;2024-01-06T07:04:22;8.30;;;4.90;;
33993;SDS011;20673;48.980;8.138;2024-01-06T07:06:50;7.57;;;4.67;;
33993;SDS011;20673;48.980;8.138;2024-01-06T07:09:16;7.97;;;4.10;;
33993;SDS011;20673;48.980;8.138;2024-01-06T07:11:42;12.57;;;4.63;;
33993;SDS011;20673;48.980;8.138;2024-01-06T07:14:08;12.60;;;4.60;;
33993;SDS011;20673;48.980;8.138;2024-01-06T07:16:34;8.23;;;4.47;;
33993;SDS011;20673;48.980;8.138;2024-01-06T07:19:01;10.30;;;4.63;;
33993;SDS011;20673;48.980;8.138;2024-01-06T07:21:27;10.37;;;5.50;;
33993;SDS011;20673;48.980;8.138;2024-01-06T07:23:53;7.50;;;4.80;;
33993;SDS011;20673;48.980;8.138;2024-01-06T07:26:19;9.90;;;5.00;;
33993;SDS011;20673;48.980;8.138;2024-01-06T07:28:45;10.17;;;5.10;;
33993;SDS011;20673;48.980;8.138;2024-01-06T07:31:11;6.77;;;4.40;;
33993;SDS011;20673;48.980;8.138;2024-01-06T07:33:37;10.87;;;5.20;;
33993;SDS011;20673;48.980;8.138;2024-01-06T07:36:05;8.93;;;5.27;;
33993;SDS011;20673;48.980;8.138;2024-01-06T07:38:31;9.03;;;4.57;;
33993;SDS011;20673;48.980;8.138;2024-01-06T07:40:57;10.00;;;4.37;;
33993;SDS011;20673;48.980;8.138;2024-01-06T07:43:23;8.57;;;4.27;;
33993;SDS011;20673;48.980;8.138;2024-01-06T07:45:50;8.80;;;4.73;;
33993;SDS011;20673;48.980;8.138;2024-01-06T07:48:16;12.90;;;4.17;;
33993;SDS011;20673;48.980;8.138;2024-01-06T07:50:42;9.53;;;4.43;;
33993;SDS011;20673;48.980;8.138;2024-01-06T07:53:08;9.13;;;4.87;;
33993;SDS011;20673;48.980;8.138;2024-01-06T07:55:35;10.53;;;5.17;;
33993;SDS011;20673;48.980;8.138;2024-01-06T07:58:01;11.87;;;6.07;;
33993;SDS011;20673;48.980;8.138;2024-01-06T08:00:27;13.80;;;6.27;;
33993;SDS011;20673;48.980;8.138;2024-01-06T08:02:53;10.50;;;6.20;;
33993;SDS011;20673;48.980;8.138;2024-01-06T08:05:20;8.67;;;4.60;;
33993;SDS011;20673;48.980;8.138;2024-01-06T08:07:55;7.13;;;4.77;;
33993;SDS011;20673;48.980;8.138;2024-01-06T08:10:26;7.40;;;5.03;;
33993;SDS011;20673;48.980;8.138;2024-01-06T08:12:52;11.77;;;5.67;;
33993;SDS011;20673;48.980;8.138;2024-01-06T08:15:19;9.20;;;5.07;;
33993;SDS011;20673;48.980;8.138;2024-01-06T08:17:46;12.07;;;4.67;;
33993;SDS011;20673;48.980;8.138;2024-01-06T08:20:13;13.07;;;5.23;;
33993;SDS011;20673;48.980;8.138;2024-01-06T08:22:39;10.63;;;5.50;;
33993;SDS011;20673;48.980;8.138;2024-01-06T08:25:06;11.13;;;5.03;;
33993;SDS011;20673;48.980;8.138;2024-01-06T08:27:33;11.47;;;5.50;;
33993;SDS011;20673;48.980;8.138;2024-01-06T08:30:00;12.57;;;5.57;;
33993;SDS011;20673;48.980;8.138;2024-01-06T08:32:27;10.37;;;5.33;;
33993;SDS011;20673;48.980;8.138;2024-01-06T08:34:53;9.37;;;5.83;;
33993;SDS011;20673;48.980;8.138;2024-01-06T08:37:19;10.10;;;5.67;;
33993;SDS011;20673;48.980;8.138;2024-01-06T08:39:45;12.90;;;6.00;;
33993;SDS011;20673;48.980;8.138;2024-01-06T08:42:11;11.27;;;5.60;;
33993;SDS011;20673;48.980;8.138;2024-01-06T08:44:37;9.33;;;6.17;;
33993;SDS011;20673;48.980;8.138;2024-01-06T08:47:03;10.33;;;6.03;;
33993;SDS011;20673;48.980;8.138;2024-01-06T08:49:30;11.20;;;5.80;;
33993;SDS011;20673;48.980;8.138;2024-01-06T08:51:58;10.33;;;6.50;;
33993;SDS011;20673;48.980;8.138;2024-01-06T08:54:24;9.93;;;5.80;;
33993;SDS011;20673;48.980;8.138;2024-01-06T08:56:50;14.70;;;7.10;;
33993;SDS011;20673;48.980;8.138;2024-01-06T08:59:16;10.90;;;6.40;;
33993;SDS011;20673;48.980;8.138;2024-01-06T09:01:42;12.20;;;7.40;;
33993;SDS011;20673;48.980;8.138;2024-01-06T09:04:08;13.77;;;8.00;;
33993;SDS011;20673;48.980;8.138;2024-01-06T09:06:36;12.70;;;7.37;;
33993;SDS011;20673;48.980;8.138;2024-01-06T09:09:02;11.23;;;6.47;;
33993;SDS011;20673;48.980;8.138;2024-01-06T09:11:28;14.77;;;7.83;;
33993;SDS011;20673;48.980;8.138;2024-01-06T09:13:54;14.60;;;7.73;;
33993;SDS011;20673;48.980;8.138;2024-01-06T09:16:21;13.57;;;8.13;;
33993;SDS011;20673;48.980;8.138;2024-01-06T09:18:47;12.87;;;7.83;;
33993;SDS011;20673;48.980;8.138;2024-01-06T09:21:14;15.43;;;9.20;;
33993;SDS011;20673;48.980;8.138;2024-01-06T09:23:41;13.40;;;7.87;;
33993;SDS011;20673;48.980;8.138;2024-01-06T09:26:07;12.93;;;7.77;;
33993;SDS011;20673;48.980;8.138;2024-01-06T09:28:33;12.93;;;8.73;;
33993;SDS011;20673;48.980;8.138;2024-01-06T09:30:59;16.43;;;8.77;;
33993;SDS011;20673;48.980;8.138;2024-01-06T09:33:26;15.23;;;8.90;;
33993;SDS011;20673;48.980;8.138;2024-01-06T09:35:52;14.00;;;8.80;;
33993;SDS011;20673;48.980;8.138;2024-01-06T09:38:18;15.93;;;9.67;;
33993;SDS011;20673;48.980;8.138;2024-01-06T09:40:45;13.43;;;8.70;;
33993;SDS011;20673;48.980;8.138;2024-01-06T09:43:11;14.37;;;10.17;;
33993;SDS011;20673;48.980;8.138;2024-01-06T09:45:38;14.30;;;9.70;;
33993;SDS011;20673;48.980;8.138;2024-01-06T09:48:12;17.87;;;9.90;;
33993;SDS011;20673;48.980;8.138;2024-01-06T09:50:43;16.33;;;9.80;;
33993;SDS011;20673;48.980;8.138;2024-01-06T09:53:12;14.27;;;9.10;;
33993;SDS011;20673;48.980;8.138;2024-01-06T09:55:39;11.93;;;8.33;;
33993;SDS011;20673;48.980;8.138;2024-01-06T09:58:05;12.20;;;9.03;;
33993;SDS011;20673;48.980;8.138;2024-01-06T10:00:35;13.63;;;8.90;;
33993;SDS011;20673;48.980;8.138;2024-01-06T10:03:02;13.03;;;8.97;;
33993;SDS011;20673;48.980;8.138;2024-01-06T10:05:28;13.37;;;9.43;;
33993;SDS011;20673;48.980;8.138;2024-01-06T10:07:56;11.93;;;8.27;;
33993;SDS011;20673;48.980;8.138;2024-01-06T10:10:22;15.07;;;8.67;;
33993;SDS011;20673;48.980;8.138;2024-01-06T10:12:48;13.53;;;9.80;;
33993;SDS011;20673;48.980;8.138;2024-01-06T10:15:20;11.80;;;8.37;;
33993;SDS011;20673;48.980;8.138;2024-01-06T10:17:46;11.33;;;8.57;;
33993;SDS011;20673;48.980;8.138;2024-01-06T10:20:12;12.40;;;8.27;;
33993;SDS011;20673;48.980;8.138;2024-01-06T10:22:40;12.53;;;9.30;;
33993;SDS011;20673;48.980;8.138;2024-01-06T10:25:08;11.83;;;8.60;;
33993;SDS011;20673;48.980;8.138;2024-01-06T10:27:40;11.10;;;8.33;;
33993;SDS011;20673;48.980;8.138;2024-01-06T10:30:07;11.60;;;7.53;;
33993;SDS011;20673;48.980;8.138;2024-01-06T10:32:35;11.07;;;7.60;;
33993;SDS011;20673;48.980;8.138;2024-01-06T10:35:02;9.30;;;7.53;;
33993;SDS011;20673;48.980;8.138;2024-01-06T10:37:31;10.20;;;8.30;;
33993;SDS011;20673;48.980;8.138;2024-01-06T10:42:37;11.47;;;7.63;;
33993;SDS011;20673;48.980;8.138;2024-01-06T10:45:08;9.70;;;7.77;;
33993;SDS011;20673;48.980;8.138;2024-01-06T10:47:38;10.33;;;7.80;;
33993;SDS011;20673;48.980;8.138;2024-01-06T10:50:06;10.83;;;7.83;;
33993;SDS011;20673;48.980;8.138;2024-01-06T10:52:33;9.53;;;6.67;;
33993;SDS011;20673;48.980;8.138;2024-01-06T10:55:01;9.23;;;7.40;;
33993;SDS011;20673;48.980;8.138;2024-01-06T10:57:28;10.53;;;7.00;;
33993;SDS011;20673;48.980;8.138;2024-01-06T10:59:56;10.30;;;8.50;;
33993;SDS011;20673;48.980;8.138;2024-01-06T11:02:24;11.40;;;7.50;;
33993;SDS011;20673;48.980;8.138;2024-01-06T11:04:52;9.93;;;6.83;;
33993;SDS011;20673;48.980;8.138;2024-01-06T11:07:22;10.67;;;7.03;;
33993;SDS011;20673;48.980;8.138;2024-01-06T11:12:25;10.87;;;6.43;;
33993;SDS011;20673;48.980;8.138;2024-01-06T11:14:54;8.07;;;6.60;;
33993;SDS011;20673;48.980;8.138;2024-01-06T11:20:19;10.47;;;6.80;;
33993;SDS011;20673;48.980;8.138;2024-01-06T11:22:46;9.77;;;6.93;;
33993;SDS011;20673;48.980;8.138;2024-01-06T11:25:14;12.20;;;7.67;;
33993;SDS011;20673;48.980;8.138;2024-01-06T11:27:46;10.95;;;7.97;;
33993;SDS011;20673;48.980;8.138;2024-01-06T11:30:24;8.50;;;7.27;;
33993;SDS011;20673;48.980;8.138;2024-01-06T11:32:49;11.60;;;7.57;;
33993;SDS011;20673;48.980;8.138;2024-01-06T11:35:18;9.27;;;7.97;;
33993;SDS011;20673;48.980;8.138;2024-01-06T11:42:56;8.97;;;6.83;;
33993;SDS011;20673;48.980;8.138;2024-01-06T11:45:36;9.88;;;6.83;;
33993;SDS011;20673;48.980;8.138;2024-01-06T11:48:10;9.43;;;7.67;;
33993;SDS011;20673;48.980;8.138;2024-01-06T11:50:40;12.40;;;7.07;;
33993;SDS011;20673;48.980;8.138;2024-01-06T11:53:07;9.53;;;7.00;;
33993;SDS011;20673;48.980;8.138;2024-01-06T11:55:39;8.97;;;6.97;;
33993;SDS011;20673;48.980;8.138;2024-01-06T11:58:07;7.97;;;6.67;;
33993;SDS011;20673;48.980;8.138;2024-01-06T12:00:34;9.23;;;7.90;;
33993;SDS011;20673;48.980;8.138;2024-01-06T12:03:03;10.57;;;7.50;;
33993;SDS011;20673;48.980;8.138;2024-01-06T12:05:29;12.37;;;8.27;;
33993;SDS011;20673;48.980;8.138;2024-01-06T12:07:56;12.80;;;7.80;;
33993;SDS011;20673;48.980;8.138;2024-01-06T12:10:28;10.48;;;7.37;;
33993;SDS011;20673;48.980;8.138;2024-01-06T12:13:01;11.23;;;8.00;;
33993;SDS011;20673;48.980;8.138;2024-01-06T12:15:31;12.97;;;8.53;;
33993;SDS011;20673;48.980;8.138;2024-01-06T12:17:58;12.43;;;8.10;;
33993;SDS011;20673;48.980;8.138;2024-01-06T12:20:25;11.27;;;8.53;;
33993;SDS011;20673;48.980;8.138;2024-01-06T12:22:54;12.57;;;8.30;;
33993;SDS011;20673;48.980;8.138;2024-01-06T12:25:21;11.77;;;7.63;;
33993;SDS011;20673;48.980;8.138;2024-01-06T12:27:50;12.40;;;8.20;;
33993;SDS011;20673;48.980;8.138;2024-01-06T12:30:20;10.67;;;8.73;;
33993;SDS011;20673;48.980;8.138;2024-01-06T12:32:48;11.97;;;8.27;;
33993;SDS011;20673;48.980;8.138;2024-01-06T12:35:17;10.20;;;7.87;;
33993;SDS011;20673;48.980;8.138;2024-01-06T12:37:45;12.97;;;9.30;;
33993;SDS011;20673;48.980;8.138;2024-01-06T12:40:12;14.20;;;8.87;;
33993;SDS011;20673;48.980;8.138;2024-01-06T12:42:40;10.93;;;7.63;;
33993;SDS011;20673;48.980;8.138;2024-01-06T12:45:07;13.30;;;8.70;;
33993;SDS011;20673;48.980;8.138;2024-01-06T12:47:35;11.43;;;8.83;;
33993;SDS011;20673;48.980;8.138;2024-01-06T12:50:02;10.23;;;8.43;;
33993;SDS011;20673;48.980;8.138;2024-01-06T12:52:29;11.10;;;8.50;;
33993;SDS011;20673;48.980;8.138;2024-01-06T12:54:56;13.07;;;8.27;;
33993;SDS011;20673;48.980;8.138;2024-01-06T12:57:22;12.63;;;8.47;;
33993;SDS011;20673;48.980;8.138;2024-01-06T12:59:49;13.60;;;8.63;;
33993;SDS011;20673;48.980;8.138;2024-01-06T13:02:15;11.80;;;9.03;;
33993;SDS011;20673;48.980;8.138;2024-01-06T13:04:41;10.80;;;8.57;;
33993;SDS011;20673;48.980;8.138;2024-01-06T13:07:07;13.10;;;9.03;;
33993;SDS011;20673;48.980;8.138;2024-01-06T13:09:33;10.60;;;8.37;;
33993;SDS011;20673;48.980;8.138;2024-01-06T13:11:59;12.27;;;8.57;;
33993;SDS011;20673;48.980;8.138;2024-01-06T13:14:30;11.60;;;8.93;;
33993;SDS011;20673;48.980;8.138;2024-01-06T13:16:55;11.73;;;9.00;;
33993;SDS011;20673;48.980;8.138;2024-01-06T13:19:21;12.97;;;9.07;;
33993;SDS011;20673;48.980;8.138;2024-01-06T13:21:48;12.80;;;9.23;;
33993;SDS011;20673;48.980;8.138;2024-01-06T13:24:14;14.37;;;9.90;;
33993;SDS011;20673;48.980;8.138;2024-01-06T13:26:40;12.57;;;10.00;;
33993;SDS011;20673;48.980;8.138;2024-01-06T13:29:06;14.03;;;10.20;;
33993;SDS011;20673;48.980;8.138;2024-01-06T13:31:33;15.60;;;10.13;;
33993;SDS011;20673;48.980;8.138;2024-01-06T13:33:59;12.37;;;9.57;;
33993;SDS011;20673;48.980;8.138;2024-01-06T13:36:25;12.47;;;9.47;;
33993;SDS011;20673;48.980;8.138;2024-01-06T13:38:51;15.10;;;9.90;;
33993;SDS011;20673;48.980;8.138;2024-01-06T13:41:17;14.30;;;10.63;;
33993;SDS011;20673;48.980;8.138;2024-01-06T13:43:44;12.30;;;9.97;;
33993;SDS011;20673;48.980;8.138;2024-01-06T13:46:10;11.27;;;8.23;;
33993;SDS011;20673;48.980;8.138;2024-01-06T13:48:38;13.37;;;9.60;;
33993;SDS011;20673;48.980;8.138;2024-01-06T13:51:06;11.90;;;8.77;;
33993;SDS011;20673;48.980;8.138;2024-01-06T13:53:32;12.37;;;9.43;;
33993;SDS011;20673;48.980;8.138;2024-01-06T13:55:59;15.53;;;9.63;;
33993;SDS011;20673;48.980;8.138;2024-01-06T13:58:25;14.63;;;9.57;;
33993;SDS011;20673;48.980;8.138;2024-01-06T14:00:51;13.90;;;9.80;;
33993;SDS011;20673;48.980;8.138;2024-01-06T14:03:17;13.43;;;9.70;;
33993;SDS011;20673;48.980;8.138;2024-01-06T14:05:44;14.07;;;9.80;;
33993;SDS011;20673;48.980;8.138;2024-01-06T14:08:10;13.73;;;10.40;;
33993;SDS011;20673;48.980;8.138;2024-01-06T14:10:36;14.20;;;10.90;;
33993;SDS011;20673;48.980;8.138;2024-01-06T14:13:03;16.07;;;10.37;;
33993;SDS011;20673;48.980;8.138;2024-01-06T14:15:29;15.53;;;10.33;;
33993;SDS011;20673;48.980;8.138;2024-01-06T14:17:57;15.43;;;10.37;;
33993;SDS011;20673;48.980;8.138;2024-01-06T14:20:24;14.20;;;9.43;;
33993;SDS011;20673;48.980;8.138;2024-01-06T14:22:51;18.87;;;9.90;;
33993;SDS011;20673;48.980;8.138;2024-01-06T14:25:17;17.63;;;10.90;;
33993;SDS011;20673;48.980;8.138;2024-01-06T14:27:44;15.40;;;10.70;;
33993;SDS011;20673;48.980;8.138;2024-01-06T14:30:11;18.90;;;11.83;;
33993;SDS011;20673;48.980;8.138;2024-01-06T14:32:38;19.20;;;11.60;;
33993;SDS011;20673;48.980;8.138;2024-01-06T14:35:05;17.87;;;12.03;;
33993;SDS011;20673;48.980;8.138;2024-01-06T14:37:32;18.80;;;12.37;;
33993;SDS011;20673;48.980;8.138;2024-01-06T14:39:59;17.07;;;11.03;;
33993;SDS011;20673;48.980;8.138;2024-01-06T14:42:27;15.43;;;10.90;;
33993;SDS011;20673;48.980;8.138;2024-01-06T14:44:53;15.43;;;10.63;;
33993;SDS011;20673;48.980;8.138;2024-01-06T14:47:19;15.43;;;10.47;;
33993;SDS011;20673;48.980;8.138;2024-01-06T14:49:45;14.03;;;9.60;;
33993;SDS011;20673;48.980;8.138;2024-01-06T14:52:11;15.50;;;11.97;;
33993;SDS011;20673;48.980;8.138;2024-01-06T14:54:37;14.57;;;9.90;;